createdAt,value
2022-08-22T00:01:39.079Z,14.32
2022-08-22T00:03:07.258Z,17.25
2022-08-22T00:04:26.403Z,14.28
2022-08-22T00:06:58.793Z,14.29
2022-08-22T00:09:40.899Z,14.17
2022-08-22T00:12:34.478Z,14.15
2022-08-22T00:15:45.127Z,14.23
2022-08-22T00:18:22.370Z,14.30
2022-08-22T00:21:12.263Z,14.45
2022-08-22T00:23:41.319Z,14.66
2022-08-22T00:26:31.467Z,14.69
2022-08-22T00:29:09.437Z,14.83
2022-08-22T00:31:40.805Z,14.90
2022-08-22T00:34:13.722Z,14.95
2022-08-22T00:37:01.674Z,14.92
2022-08-22T00:39:35.426Z,15.04
2022-08-22T00:42:10.557Z,15.23
2022-08-22T00:45:01.699Z,15.29
2022-08-22T00:47:58.246Z,15.01
2022-08-22T00:50:35.299Z,15.01
2022-08-22T00:53:13.619Z,15.04
2022-08-22T00:55:54.282Z,15.07
2022-08-22T00:59:17.985Z,14.97
2022-08-22T01:02:15.275Z,14.90
2022-08-22T01:05:09.912Z,14.81
2022-08-22T01:08:07.433Z,14.71
2022-08-22T01:11:11.416Z,15.07
2022-08-22T01:14:34.990Z,15.33
2022-08-22T01:17:36.629Z,15.30
2022-08-22T01:20:31.496Z,15.38
2022-08-22T01:23:46.435Z,15.09
2022-08-22T01:27:03.822Z,14.87
2022-08-22T01:29:51.687Z,14.60
2022-08-22T01:32:34.551Z,14.43
2022-08-22T01:35:24.825Z,14.30
2022-08-22T01:38:06.133Z,14.08
2022-08-22T01:40:59.961Z,13.97
2022-08-22T01:44:00.623Z,13.86
2022-08-22T01:46:58.504Z,13.73
2022-08-22T01:49:38.570Z,13.76
2022-08-22T01:52:20.814Z,13.81
2022-08-22T01:55:03.015Z,13.76
2022-08-22T01:57:29.643Z,13.79
2022-08-22T02:00:01.344Z,13.70
2022-08-22T02:02:39.794Z,13.71
2022-08-22T02:05:21.987Z,13.64
2022-08-22T02:08:25.990Z,13.64
2022-08-22T02:11:05.295Z,13.62
2022-08-22T02:13:56.011Z,13.56
2022-08-22T02:16:38.239Z,13.54
2022-08-22T02:19:13.687Z,13.54
2022-08-22T02:21:46.143Z,13.48
2022-08-22T02:24:33.717Z,13.47
2022-08-22T02:27:07.945Z,13.43
2022-08-22T02:29:38.563Z,13.40
2022-08-22T02:32:25.050Z,13.28
2022-08-22T02:35:09.970Z,13.24
2022-08-22T02:37:55.303Z,13.10
2022-08-22T02:40:44.247Z,13.05
2022-08-22T02:43:35.662Z,13.01
2022-08-22T02:46:40.716Z,13.01
2022-08-22T02:49:36.095Z,12.94
2022-08-22T02:52:39.314Z,12.96
2022-08-22T02:55:15.479Z,13.04
2022-08-22T02:58:04.302Z,13.35
2022-08-22T03:00:44.050Z,13.28
2022-08-22T03:03:16.495Z,13.06
2022-08-22T03:06:00.514Z,12.90
2022-08-22T03:08:42.917Z,12.91
2022-08-22T03:11:26.459Z,13.04
2022-08-22T03:14:28.482Z,12.94
2022-08-22T03:17:08.079Z,12.85
2022-08-22T03:19:53.106Z,12.65
2022-08-22T03:22:29.727Z,12.59
2022-08-22T03:25:20.808Z,12.52
2022-08-22T03:28:14.176Z,12.55
2022-08-22T03:30:44.799Z,12.65
2022-08-22T03:33:23.457Z,12.62
2022-08-22T03:36:00.087Z,12.64
2022-08-22T03:38:26.370Z,12.63
2022-08-22T03:41:15.047Z,12.62
2022-08-22T03:43:59.939Z,12.65
2022-08-22T03:46:50.237Z,12.62
2022-08-22T03:49:59.243Z,12.58
2022-08-22T03:53:18.753Z,12.58
2022-08-22T03:55:45.522Z,12.60
2022-08-22T03:58:35.571Z,12.55
2022-08-22T04:01:20.076Z,12.57
2022-08-22T04:04:11.185Z,12.45
2022-08-22T04:06:56.518Z,12.44
2022-08-22T04:09:53.414Z,12.38
2022-08-22T04:12:29.574Z,12.40
2022-08-22T04:15:17.175Z,12.29
2022-08-22T04:17:43.488Z,12.27
2022-08-22T04:20:24.663Z,12.20
2022-08-22T04:23:09.847Z,12.25
2022-08-22T04:25:40.359Z,12.15
2022-08-22T04:28:45.300Z,12.18
2022-08-22T04:31:14.534Z,12.29
2022-08-22T04:33:50.474Z,12.23
2022-08-22T04:36:25.623Z,12.26
2022-08-22T04:39:04.979Z,12.29
2022-08-22T04:42:11.090Z,12.35
2022-08-22T04:44:53.607Z,12.44
2022-08-22T04:47:30.481Z,12.59
2022-08-22T04:50:07.410Z,12.62
2022-08-22T04:52:46.331Z,12.72
2022-08-22T04:55:31.498Z,12.63
2022-08-22T04:58:29.712Z,12.51
2022-08-22T05:01:14.883Z,12.49
2022-08-22T05:03:47.687Z,12.68
2022-08-22T05:06:17.110Z,12.68
2022-08-22T05:08:45.702Z,12.75
2022-08-22T05:11:19.722Z,12.72
2022-08-22T05:13:54.855Z,12.72
2022-08-22T05:16:25.971Z,12.79
2022-08-22T05:19:01.724Z,12.86
2022-08-22T05:21:35.168Z,12.94
2022-08-22T05:24:09.386Z,12.82
2022-08-22T05:26:42.535Z,12.87
2022-08-22T05:29:13.408Z,13.02
2022-08-22T05:31:48.741Z,13.12
2022-08-22T05:34:22.201Z,13.25
2022-08-22T05:37:02.785Z,13.38
2022-08-22T05:39:29.466Z,13.44
2022-08-22T05:42:00.410Z,13.65
2022-08-22T05:44:34.435Z,13.68
2022-08-22T05:47:06.267Z,13.78
2022-08-22T05:49:40.103Z,13.97
2022-08-22T05:52:22.577Z,14.28
2022-08-22T05:55:09.728Z,14.90
2022-08-22T05:57:41.019Z,15.77
2022-08-22T06:00:14.685Z,16.50
2022-08-22T06:03:09.242Z,17.10
2022-08-22T06:05:40.916Z,18.22
2022-08-22T06:08:19.668Z,19.01
2022-08-22T06:10:51.139Z,19.61
2022-08-22T06:13:41.163Z,20.27
2022-08-22T06:16:22.593Z,20.48
2022-08-22T06:18:50.947Z,21.02
2022-08-22T06:21:22.222Z,21.34
2022-08-22T06:23:53.657Z,22.13
2022-08-22T06:26:21.487Z,22.24
2022-08-22T06:28:54.734Z,22.04
2022-08-22T06:31:33.046Z,22.17
2022-08-22T06:34:08.121Z,20.85
2022-08-22T06:36:38.889Z,20.56
2022-08-22T06:39:21.968Z,20.40
2022-08-22T06:41:56.792Z,19.78
2022-08-22T06:44:28.013Z,19.28
2022-08-22T06:46:59.175Z,19.03
2022-08-22T06:49:26.926Z,19.12
2022-08-22T06:51:59.783Z,18.45
2022-08-22T06:54:34.176Z,18.87
2022-08-22T06:57:03.435Z,19.00
2022-08-22T06:59:33.263Z,18.97
2022-08-22T07:02:08.137Z,18.64
2022-08-22T07:04:34.767Z,18.97
2022-08-22T07:07:01.926Z,19.25
2022-08-22T07:09:28.211Z,19.15
2022-08-22T07:11:57.382Z,19.09
2022-08-22T07:14:46.628Z,18.93
2022-08-22T07:17:20.769Z,19.05
2022-08-22T07:20:05.584Z,19.28
2022-08-22T07:22:34.858Z,19.61
2022-08-22T07:25:19.631Z,19.70
2022-08-22T07:28:19.939Z,19.78
2022-08-22T07:31:02.245Z,19.45
2022-08-22T07:33:41.098Z,19.70
2022-08-22T07:36:39.820Z,20.05
2022-08-22T07:39:21.455Z,20.20
2022-08-22T07:41:47.862Z,20.17
2022-08-22T07:44:22.599Z,19.91
2022-08-22T07:47:26.353Z,19.78
2022-08-22T07:49:59.981Z,19.95
2022-08-22T07:52:35.849Z,19.88
2022-08-22T07:55:18.263Z,20.30
2022-08-22T07:57:49.422Z,20.90
2022-08-22T08:00:19.477Z,21.37
2022-08-22T08:02:52.687Z,21.39
2022-08-22T08:05:22.839Z,21.15
2022-08-22T08:07:53.263Z,21.22
2022-08-22T08:10:25.830Z,21.43
2022-08-22T08:13:02.584Z,21.31
2022-08-22T08:15:31.720Z,21.17
2022-08-22T08:18:04.971Z,21.33
2022-08-22T08:20:34.916Z,21.27
2022-08-22T08:23:01.947Z,21.16
2022-08-22T08:25:31.211Z,20.86
2022-08-22T08:27:59.645Z,21.24
2022-08-22T08:30:43.945Z,21.61
2022-08-22T08:33:25.594Z,21.31
2022-08-22T08:36:18.386Z,21.19
2022-08-22T08:38:57.163Z,21.65
2022-08-22T08:42:02.953Z,21.60
2022-08-22T08:44:41.581Z,21.77
2022-08-22T08:47:23.987Z,22.27
2022-08-22T08:50:22.483Z,22.15
2022-08-22T08:53:24.468Z,22.29
2022-08-22T08:56:20.033Z,22.93
2022-08-22T08:59:10.362Z,23.08
2022-08-22T09:02:01.290Z,23.09
2022-08-22T09:05:05.471Z,23.35
2022-08-22T09:07:54.646Z,23.74
2022-08-22T09:10:33.822Z,23.84
2022-08-22T09:13:12.135Z,23.87
2022-08-22T09:16:05.055Z,23.99
2022-08-22T09:18:53.646Z,23.66
2022-08-22T09:21:50.631Z,23.94
2022-08-22T09:24:42.178Z,24.25
2022-08-22T09:27:17.874Z,24.40
2022-08-22T09:29:54.897Z,24.66
2022-08-22T09:32:51.179Z,24.67
2022-08-22T09:35:31.277Z,24.39
2022-08-22T09:38:02.324Z,24.05
2022-08-22T09:40:45.999Z,24.54
2022-08-22T09:43:23.103Z,24.75
2022-08-22T09:46:21.469Z,24.81
2022-08-22T09:48:56.051Z,24.91
2022-08-22T09:51:32.471Z,24.39
2022-08-22T09:54:15.037Z,24.90
2022-08-22T09:57:07.498Z,24.97
2022-08-22T09:59:40.980Z,25.23
2022-08-22T10:02:31.505Z,25.37
2022-08-22T10:05:08.747Z,25.68
2022-08-22T10:07:54.729Z,25.66
2022-08-22T10:10:48.266Z,25.62
2022-08-22T10:13:34.156Z,25.03
2022-08-22T10:16:21.154Z,25.24
2022-08-22T10:19:00.540Z,25.55
2022-08-22T10:21:42.309Z,25.96
2022-08-22T10:24:43.737Z,25.85
2022-08-22T10:27:20.501Z,25.88
2022-08-22T10:30:10.238Z,25.83
2022-08-22T10:33:13.915Z,25.91
2022-08-22T10:35:43.425Z,26.29
2022-08-22T10:38:27.359Z,26.46
2022-08-22T10:41:08.830Z,26.65
2022-08-22T10:44:01.305Z,27.08
2022-08-22T10:46:59.476Z,27.25
2022-08-22T10:49:33.425Z,27.04
2022-08-22T10:52:16.761Z,27.25
2022-08-22T10:54:51.137Z,27.41
2022-08-22T10:57:26.958Z,27.70
2022-08-22T11:00:05.782Z,27.87
2022-08-22T11:02:53.998Z,28.02
2022-08-22T11:05:31.614Z,28.00
2022-08-22T11:08:16.300Z,27.93
2022-08-22T11:11:07.593Z,27.84
2022-08-22T11:13:43.320Z,28.05
2022-08-22T11:16:24.190Z,27.99
2022-08-22T11:19:25.082Z,28.13
2022-08-22T11:22:10.043Z,27.70
2022-08-22T11:25:29.176Z,27.67
2022-08-22T11:28:19.197Z,28.06
2022-08-22T11:31:07.158Z,28.43
2022-08-22T11:33:46.377Z,28.70
2022-08-22T11:36:36.891Z,28.89
2022-08-22T11:39:25.562Z,28.55
2022-08-22T11:42:04.731Z,27.51
2022-08-22T11:44:50.437Z,28.04
2022-08-22T11:47:26.570Z,28.75
2022-08-22T11:49:54.606Z,28.87
2022-08-22T11:52:26.583Z,28.87
2022-08-22T11:55:23.226Z,28.64
2022-08-22T11:57:54.953Z,28.72
2022-08-22T12:00:58.619Z,28.28
2022-08-22T12:03:55.696Z,28.16
2022-08-22T12:06:42.905Z,27.93
2022-08-22T12:09:38.003Z,26.93
2022-08-22T12:12:10.377Z,26.63
2022-08-22T12:14:57.315Z,27.29
2022-08-22T12:17:54.954Z,27.54
2022-08-22T12:20:45.589Z,27.36
2022-08-22T12:23:43.220Z,27.53
2022-08-22T12:26:44.207Z,27.19
2022-08-22T12:29:55.048Z,27.59
2022-08-22T12:32:49.044Z,28.06
2022-08-22T12:35:39.035Z,28.40
2022-08-22T12:38:38.044Z,28.45
2022-08-22T12:41:07.893Z,28.27
2022-08-22T12:43:43.437Z,28.05
2022-08-22T12:46:28.858Z,27.96
2022-08-22T12:49:39.995Z,27.92
2022-08-22T12:52:20.143Z,27.16
2022-08-22T12:55:25.045Z,27.10
2022-08-22T12:58:17.905Z,28.10
2022-08-22T13:00:47.126Z,28.40
2022-08-22T13:03:37.014Z,28.24
2022-08-22T13:06:25.644Z,28.49
2022-08-22T13:08:53.713Z,28.71
2022-08-22T13:11:23.312Z,28.27
2022-08-22T13:14:00.277Z,28.25
2022-08-22T13:16:41.299Z,27.89
2022-08-22T13:19:26.985Z,27.58
2022-08-22T13:22:03.404Z,27.55
2022-08-22T13:24:54.773Z,27.10
2022-08-22T13:27:29.842Z,26.85
2022-08-22T13:30:04.257Z,26.88
2022-08-22T13:32:49.882Z,26.86
2022-08-22T13:35:44.573Z,27.12
2022-08-22T13:38:26.209Z,27.27
2022-08-22T13:40:55.278Z,27.21
2022-08-22T13:43:28.062Z,27.21
2022-08-22T13:46:01.951Z,27.24
2022-08-22T13:48:49.676Z,27.25
2022-08-22T13:51:41.058Z,26.59
2022-08-22T13:54:59.772Z,26.64
2022-08-22T13:57:51.945Z,26.92
2022-08-22T14:00:25.354Z,27.08
2022-08-22T14:03:17.991Z,27.35
2022-08-22T14:05:49.395Z,27.69
2022-08-22T14:08:22.603Z,27.79
2022-08-22T14:11:06.912Z,28.27
2022-08-22T14:13:40.982Z,28.48
2022-08-22T14:16:20.903Z,28.52
2022-08-22T14:18:52.973Z,28.75
2022-08-22T14:21:26.982Z,28.83
2022-08-22T14:23:58.950Z,28.23
2022-08-22T14:26:33.186Z,28.31
2022-08-22T14:29:12.686Z,28.37
2022-08-22T14:31:39.722Z,28.50
2022-08-22T14:34:09.666Z,28.61
2022-08-22T14:36:48.710Z,28.46
2022-08-22T14:39:50.457Z,28.18
2022-08-22T14:42:23.195Z,28.12
2022-08-22T14:45:01.926Z,28.07
2022-08-22T14:48:14.121Z,28.07
2022-08-22T14:50:49.073Z,28.21
2022-08-22T14:53:19.296Z,28.32
2022-08-22T14:56:02.441Z,28.28
2022-08-22T14:58:32.481Z,28.57
2022-08-22T15:01:14.186Z,28.54
2022-08-22T15:03:42.897Z,28.73
2022-08-22T15:06:36.268Z,28.94
2022-08-22T15:09:33.025Z,28.64
2022-08-22T15:12:01.605Z,28.83
2022-08-22T15:14:35.854Z,28.78
2022-08-22T15:17:06.374Z,28.65
2022-08-22T15:19:32.670Z,28.67
2022-08-22T15:22:21.219Z,28.33
2022-08-22T15:25:04.818Z,27.88
2022-08-22T15:27:34.406Z,27.96
2022-08-22T15:30:07.613Z,28.08
2022-08-22T15:32:47.031Z,27.79
2022-08-22T15:35:26.645Z,27.84
2022-08-22T15:38:02.566Z,27.65
2022-08-22T15:40:40.540Z,27.57
2022-08-22T15:43:28.907Z,27.16
2022-08-22T15:46:29.221Z,27.19
2022-08-22T15:49:05.497Z,27.08
2022-08-22T15:51:42.450Z,27.01
2022-08-22T15:54:25.289Z,27.38
2022-08-22T15:56:51.885Z,27.02
2022-08-22T15:59:48.220Z,27.16
2022-08-22T16:02:38.869Z,26.89
2022-08-22T16:05:11.377Z,26.63
2022-08-22T16:07:43.279Z,26.55
2022-08-22T16:10:29.740Z,26.47
2022-08-22T16:13:20.851Z,26.41
2022-08-22T16:15:47.151Z,26.33
2022-08-22T16:18:35.243Z,26.27
2022-08-22T16:21:04.285Z,26.19
2022-08-22T16:23:48.671Z,25.85
2022-08-22T16:26:18.846Z,25.88
2022-08-22T16:29:03.083Z,25.97
2022-08-22T16:31:32.230Z,25.97
2022-08-22T16:34:39.373Z,25.78
2022-08-22T16:37:08.825Z,25.88
2022-08-22T16:40:00.188Z,25.60
2022-08-22T16:42:46.231Z,25.48
2022-08-22T16:45:34.482Z,25.23
2022-08-22T16:48:16.212Z,25.06
2022-08-22T16:50:42.912Z,25.03
2022-08-22T16:53:35.206Z,24.86
2022-08-22T16:56:17.286Z,24.67
2022-08-22T16:59:19.704Z,24.53
2022-08-22T17:02:06.210Z,24.26
2022-08-22T17:05:06.595Z,24.06
2022-08-22T17:07:43.375Z,24.04
2022-08-22T17:10:24.951Z,24.18
2022-08-22T17:13:06.490Z,23.95
2022-08-22T17:16:02.741Z,24.00
2022-08-22T17:19:05.575Z,24.05
2022-08-22T17:21:54.184Z,24.06
2022-08-22T17:24:59.387Z,24.12
2022-08-22T17:27:33.158Z,24.12
2022-08-22T17:30:07.974Z,23.28
2022-08-22T17:32:40.349Z,22.79
2022-08-22T17:35:46.829Z,22.87
2022-08-22T17:38:25.286Z,22.84
2022-08-22T17:41:01.748Z,22.74
2022-08-22T17:44:03.341Z,22.75
2022-08-22T17:46:43.894Z,22.69
2022-08-22T17:49:47.964Z,22.68
2022-08-22T17:52:42.387Z,22.58
2022-08-22T17:55:23.011Z,22.49
2022-08-22T17:58:00.946Z,22.36
2022-08-22T18:00:35.521Z,22.37
2022-08-22T18:03:01.823Z,22.26
2022-08-22T18:05:33.947Z,22.25
2022-08-22T18:08:37.551Z,22.14
2022-08-22T18:11:08.383Z,22.06
2022-08-22T18:13:44.714Z,22.22
2022-08-22T18:16:24.438Z,22.20
2022-08-22T18:19:05.184Z,22.18
2022-08-22T18:21:41.324Z,22.17
2022-08-22T18:24:10.746Z,22.14
2022-08-22T18:27:02.800Z,22.04
2022-08-22T18:29:43.243Z,21.80
2022-08-22T18:32:30.842Z,21.63
2022-08-22T18:34:59.753Z,21.77
2022-08-22T18:37:31.883Z,21.75
2022-08-22T18:40:22.086Z,21.76
2022-08-22T18:43:27.102Z,21.66
2022-08-22T18:45:58.178Z,21.74
2022-08-22T18:48:59.238Z,21.83
2022-08-22T18:51:34.185Z,21.76
2022-08-22T18:54:04.422Z,21.80
2022-08-22T18:56:42.900Z,21.86
2022-08-22T18:59:31.465Z,21.84
2022-08-22T19:02:16.550Z,21.49
2022-08-22T19:05:01.194Z,21.28
2022-08-22T19:08:09.086Z,21.50
2022-08-22T19:10:53.090Z,21.61
2022-08-22T19:13:38.447Z,21.57
2022-08-22T19:16:35.501Z,21.70
2022-08-22T19:19:17.774Z,21.67
2022-08-22T19:22:23.067Z,21.72
2022-08-22T19:25:04.775Z,21.60
2022-08-22T19:27:40.832Z,21.84
2022-08-22T19:30:41.425Z,21.84
2022-08-22T19:33:27.649Z,21.79
2022-08-22T19:36:27.850Z,21.93
2022-08-22T19:38:58.848Z,21.64
2022-08-22T19:41:41.019Z,21.43
2022-08-22T19:44:17.365Z,21.29
2022-08-22T19:46:47.011Z,21.20
2022-08-22T19:49:31.190Z,21.07
2022-08-22T19:52:10.484Z,20.98
2022-08-22T19:54:48.234Z,21.00
2022-08-22T19:57:27.424Z,20.96
2022-08-22T20:00:08.459Z,20.99
2022-08-22T20:03:06.688Z,20.91
2022-08-22T20:05:56.570Z,20.87
2022-08-22T20:08:50.497Z,20.90
2022-08-22T20:11:41.175Z,20.84
2022-08-22T20:14:16.297Z,20.72
2022-08-22T20:17:07.411Z,20.64
2022-08-22T20:22:49.195Z,20.54
2022-08-22T20:25:41.810Z,20.61
2022-08-22T20:28:27.340Z,20.58
2022-08-22T20:30:58.466Z,20.51
2022-08-22T20:33:33.085Z,20.40
2022-08-22T20:36:03.688Z,20.33
2022-08-22T20:38:37.299Z,20.30
2022-08-22T20:41:25.840Z,20.15
2022-08-22T20:44:16.610Z,20.25
2022-08-22T20:46:56.713Z,20.37
2022-08-22T20:49:31.210Z,20.51
2022-08-22T20:52:02.929Z,20.40
2022-08-22T20:54:32.659Z,20.49
2022-08-22T20:57:11.331Z,20.54
2022-08-22T20:59:41.265Z,20.49
2022-08-22T21:02:26.045Z,20.45
2022-08-22T21:05:08.058Z,20.50
2022-08-22T21:07:43.495Z,20.44
2022-08-22T21:10:27.129Z,20.58
2022-08-22T21:13:09.314Z,20.85
2022-08-22T21:15:47.356Z,20.99
2022-08-22T21:18:34.213Z,21.16
2022-08-22T21:21:17.788Z,21.03
2022-08-22T21:23:50.147Z,20.89
2022-08-22T21:26:28.899Z,20.95
2022-08-22T21:28:57.116Z,20.93
2022-08-22T21:31:26.807Z,21.00
2022-08-22T21:33:55.250Z,21.05
2022-08-22T21:36:26.631Z,20.93
2022-08-22T21:38:59.793Z,20.84
2022-08-22T21:41:47.702Z,20.83
2022-08-22T21:44:40.225Z,20.74
2022-08-22T21:47:30.939Z,20.81
2022-08-22T21:50:02.146Z,20.80
2022-08-22T21:52:30.903Z,20.66
2022-08-22T21:55:13.714Z,20.46
2022-08-22T21:57:40.091Z,20.48
2022-08-22T22:00:30.077Z,20.37
2022-08-22T22:02:59.875Z,20.30
2022-08-22T22:05:29.263Z,20.48
2022-08-22T22:07:55.622Z,20.58
2022-08-22T22:10:22.105Z,20.65
2022-08-22T22:12:49.391Z,20.72
2022-08-22T22:15:19.112Z,20.67
2022-08-22T22:17:45.608Z,20.73
2022-08-22T22:20:13.179Z,20.66
2022-08-22T22:22:46.276Z,20.73
2022-08-22T22:25:40.382Z,20.71
2022-08-22T22:28:08.937Z,20.74
2022-08-22T22:30:35.792Z,20.80
2022-08-22T22:33:02.169Z,20.62
2022-08-22T22:35:28.605Z,20.69
2022-08-22T22:37:55.403Z,20.65
2022-08-22T22:40:22.062Z,20.69
2022-08-22T22:42:48.442Z,20.63
2022-08-22T22:45:14.771Z,20.66
2022-08-22T22:47:41.203Z,20.60
2022-08-22T22:50:08.292Z,20.50
2022-08-22T22:52:35.117Z,20.62
2022-08-22T22:55:08.295Z,20.50
2022-08-22T22:57:42.456Z,20.64
2022-08-22T23:00:10.141Z,20.68
2022-08-22T23:02:36.515Z,20.73
2022-08-22T23:05:02.889Z,20.69
2022-08-22T23:07:29.236Z,20.71
2022-08-22T23:10:01.308Z,20.65
2022-08-22T23:12:28.047Z,20.70
2022-08-22T23:14:54.430Z,20.73
2022-08-22T23:17:20.783Z,20.71
2022-08-22T23:19:47.639Z,20.81
2022-08-22T23:22:14.244Z,20.73
2022-08-22T23:24:40.611Z,20.82
2022-08-22T23:27:08.810Z,20.74
2022-08-22T23:29:36.444Z,20.72
2022-08-22T23:32:04.443Z,20.69
2022-08-22T23:34:51.033Z,20.58
2022-08-22T23:37:20.520Z,20.65
2022-08-22T23:39:47.680Z,20.63
2022-08-22T23:42:14.986Z,20.67
2022-08-22T23:44:43.582Z,20.64
2022-08-22T23:47:10.560Z,20.60
2022-08-22T23:49:38.323Z,20.53
2022-08-22T23:52:06.032Z,20.58
2022-08-22T23:54:33.021Z,20.63
2022-08-22T23:57:01.482Z,20.48
2022-08-22T23:59:31.969Z,20.63
